Time;durP1;ratioP1;P1;durP2;ratioP2;P2;SDS_P1;SDS_P2;PMS_P1;PMS_P2;Temp;Humidity;BMP_temperature;BMP_pressure;BME280_temperature;BME280_humidity;BME280_pressure;Samples;Min_cycle;Max_cycle;Signal;HPM_P1;HPM_P2
2022/05/14 00:01:17;;;;;;;6.32;3.08;;;;;;;;;;5054189;28;20428;-81
2022/05/14 00:03:44;;;;;;;8.77;3.00;;;;;;;;;;5068402;28;20113;-86
2022/05/14 00:06:11;;;;;;;8.75;4.53;;;;;;;;;;5054646;28;20147;-89
2022/05/14 00:08:38;;;;;;;8.10;3.35;;;;;;;;;;5054804;28;20036;-84
2022/05/14 00:13:54;;;;;;;10.30;3.63;;;;;;;;;;5067637;28;20500;-83
2022/05/14 00:16:23;;;;;;;8.77;4.13;;;;;;;;;;5054630;28;20039;-87
2022/05/14 00:18:50;;;;;;;9.95;3.28;;;;;;;;;;5054671;28;20123;-87
2022/05/14 00:21:16;;;;;;;9.15;3.20;;;;;;;;;;5054214;28;20527;-86
2022/05/14 00:23:42;;;;;;;10.65;3.78;;;;;;;;;;5070268;28;20036;-91
2022/05/14 00:26:08;;;;;;;8.40;2.88;;;;;;;;;;5053830;28;20382;-84
2022/05/14 00:28:34;;;;;;;8.65;3.33;;;;;;;;;;5054280;28;20037;-89
2022/05/14 00:31:00;;;;;;;13.15;3.15;;;;;;;;;;5053723;28;20032;-89
2022/05/14 00:33:26;;;;;;;10.65;3.45;;;;;;;;;;5054031;28;20036;-86
2022/05/14 00:35:52;;;;;;;8.85;3.22;;;;;;;;;;5054384;28;20036;-88
2022/05/14 00:38:18;;;;;;;8.63;3.60;;;;;;;;;;5053152;28;20051;-86
2022/05/14 00:40:48;;;;;;;11.02;3.67;;;;;;;;;;5053434;28;20504;-82
2022/05/14 00:43:14;;;;;;;8.32;3.35;;;;;;;;;;5054836;28;20085;-84
2022/05/14 00:45:41;;;;;;;9.13;3.25;;;;;;;;;;5053862;28;20048;-91
2022/05/14 00:48:08;;;;;;;7.28;4.15;;;;;;;;;;5053502;28;20047;-84
2022/05/14 00:50:37;;;;;;;7.00;3.00;;;;;;;;;;5053752;28;20500;-87
2022/05/14 00:53:17;;;;;;;10.20;3.45;;;;;;;;;;5050534;28;20041;-87
2022/05/14 00:55:44;;;;;;;9.02;3.58;;;;;;;;;;5050223;28;20059;-87
2022/05/14 00:58:13;;;;;;;7.60;3.63;;;;;;;;;;5054793;28;20066;-90
2022/05/14 01:00:39;;;;;;;9.00;2.70;;;;;;;;;;5053418;28;20064;-87
2022/05/14 01:03:05;;;;;;;5.45;3.28;;;;;;;;;;5056287;28;20484;-86
2022/05/14 01:05:32;;;;;;;7.28;3.20;;;;;;;;;;5056627;28;20036;-86
2022/05/14 01:08:01;;;;;;;5.15;3.60;;;;;;;;;;5056982;28;20119;-91
2022/05/14 01:10:28;;;;;;;7.15;3.45;;;;;;;;;;5053505;28;20039;-89
2022/05/14 01:12:59;;;;;;;8.05;3.10;;;;;;;;;;5056179;28;20086;-89
2022/05/14 01:15:37;;;;;;;10.45;3.60;;;;;;;;;;5053555;28;20423;-90
2022/05/14 01:18:03;;;;;;;8.18;3.25;;;;;;;;;;5056586;28;20086;-92
2022/05/14 01:20:29;;;;;;;14.63;3.60;;;;;;;;;;5056947;28;20033;-87
2022/05/14 01:23:01;;;;;;;9.77;3.30;;;;;;;;;;5056261;28;20040;-88
2022/05/14 01:28:20;;;;;;;12.23;4.15;;;;;;;;;;5072334;28;20434;-88
2022/05/14 01:30:51;;;;;;;9.30;3.30;;;;;;;;;;5056438;28;20120;-87
2022/05/14 01:33:17;;;;;;;10.85;3.67;;;;;;;;;;5056286;28;20488;-91
2022/05/14 01:35:43;;;;;;;10.40;3.50;;;;;;;;;;5053006;28;20040;-88
2022/05/14 01:38:10;;;;;;;11.05;3.70;;;;;;;;;;5055187;28;20447;-88
2022/05/14 01:40:36;;;;;;;9.85;3.60;;;;;;;;;;5055516;28;20041;-86
2022/05/14 01:43:03;;;;;;;13.90;3.97;;;;;;;;;;5055558;28;20033;-89
2022/05/14 01:45:29;;;;;;;8.35;3.75;;;;;;;;;;5056505;28;20052;-87
2022/05/14 01:47:56;;;;;;;11.00;3.63;;;;;;;;;;5055680;28;20489;-92
2022/05/14 01:50:22;;;;;;;9.68;4.10;;;;;;;;;;5055659;28;20051;-88
2022/05/14 01:52:48;;;;;;;9.18;3.88;;;;;;;;;;5055559;28;20036;-86
2022/05/14 01:55:14;;;;;;;8.68;3.38;;;;;;;;;;5056324;28;20052;-89
2022/05/14 01:57:40;;;;;;;12.23;3.45;;;;;;;;;;5056679;28;20062;-85
2022/05/14 02:00:08;;;;;;;10.90;3.80;;;;;;;;;;5055647;28;20119;-86
2022/05/14 02:02:34;;;;;;;6.05;3.55;;;;;;;;;;5056655;28;20121;-90
2022/05/14 02:05:00;;;;;;;10.07;4.15;;;;;;;;;;5055658;28;20082;-88
2022/05/14 02:07:26;;;;;;;12.77;4.38;;;;;;;;;;5055988;28;20571;-91
2022/05/14 02:09:52;;;;;;;12.85;4.47;;;;;;;;;;5056032;28;20400;-89
2022/05/14 02:12:18;;;;;;;9.82;3.53;;;;;;;;;;5055755;28;20036;-91
2022/05/14 02:14:45;;;;;;;9.23;4.72;;;;;;;;;;5053176;28;20459;-92
2022/05/14 02:17:12;;;;;;;12.18;4.13;;;;;;;;;;5055355;28;20036;-89
2022/05/14 02:19:38;;;;;;;12.60;3.58;;;;;;;;;;5055132;28;20033;-92
2022/05/14 02:22:05;;;;;;;14.48;4.35;;;;;;;;;;5053062;28;20071;-89
2022/05/14 02:24:32;;;;;;;11.90;4.18;;;;;;;;;;5072868;28;20047;-89
2022/05/14 02:26:58;;;;;;;13.63;4.20;;;;;;;;;;5071575;28;20086;-90
2022/05/14 02:29:24;;;;;;;8.32;3.50;;;;;;;;;;5052838;28;20123;-87
2022/05/14 02:31:50;;;;;;;13.25;4.45;;;;;;;;;;5055890;28;20068;-92
2022/05/14 02:34:16;;;;;;;10.55;3.72;;;;;;;;;;5055732;28;20095;-90
2022/05/14 02:36:42;;;;;;;11.93;3.55;;;;;;;;;;5055681;28;20059;-89
2022/05/14 02:39:08;;;;;;;9.27;3.88;;;;;;;;;;5055560;28;20295;-91
2022/05/14 02:41:34;;;;;;;11.63;5.07;;;;;;;;;;5055556;28;20393;-89
2022/05/14 02:44:00;;;;;;;9.10;3.85;;;;;;;;;;5055533;28;20039;-88
2022/05/14 02:46:26;;;;;;;11.50;4.47;;;;;;;;;;5055482;28;20080;-87
2022/05/14 02:48:52;;;;;;;11.45;4.50;;;;;;;;;;5054836;28;20063;-92
2022/05/14 02:51:18;;;;;;;12.70;4.80;;;;;;;;;;5055088;28;20136;-88
2022/05/14 02:53:44;;;;;;;13.23;4.32;;;;;;;;;;5055545;28;20036;-89
2022/05/14 02:56:10;;;;;;;15.02;5.15;;;;;;;;;;5055827;28;20453;-91
2022/05/14 03:01:21;;;;;;;13.50;4.55;;;;;;;;;;5072350;28;20040;-91
2022/05/14 03:03:47;;;;;;;15.50;4.90;;;;;;;;;;5058781;28;20033;-90
2022/05/14 03:06:13;;;;;;;15.43;4.95;;;;;;;;;;5058775;28;20064;-90
2022/05/14 03:08:39;;;;;;;16.52;5.20;;;;;;;;;;5059216;28;20331;-89
2022/05/14 03:11:05;;;;;;;14.30;4.68;;;;;;;;;;5059239;28;20385;-88
2022/05/14 03:13:31;;;;;;;17.45;5.07;;;;;;;;;;5059601;28;20106;-89
2022/05/14 03:15:57;;;;;;;11.80;3.70;;;;;;;;;;5059062;28;20036;-83
2022/05/14 03:18:23;;;;;;;10.48;3.95;;;;;;;;;;5058750;28;20068;-91
2022/05/14 03:20:49;;;;;;;14.57;4.40;;;;;;;;;;5075962;28;20044;-82
2022/05/14 03:23:16;;;;;;;16.98;4.10;;;;;;;;;;5058565;28;20044;-86
2022/05/14 03:25:42;;;;;;;12.35;4.72;;;;;;;;;;5059733;28;20643;-91
2022/05/14 03:28:08;;;;;;;10.55;4.97;;;;;;;;;;5060177;28;20044;-89
2022/05/14 03:30:34;;;;;;;14.15;6.18;;;;;;;;;;5058926;28;20037;-84
2022/05/14 03:33:00;;;;;;;14.90;5.18;;;;;;;;;;5059135;28;20052;-88
2022/05/14 03:35:26;;;;;;;19.52;5.20;;;;;;;;;;5058766;28;20186;-92
2022/05/14 03:37:52;;;;;;;15.80;4.90;;;;;;;;;;5058445;28;20045;-85
2022/05/14 03:40:18;;;;;;;15.98;4.70;;;;;;;;;;5058633;28;20484;-90
2022/05/14 03:42:45;;;;;;;14.98;5.65;;;;;;;;;;5058461;28;20155;-92
2022/05/14 03:45:11;;;;;;;14.65;5.35;;;;;;;;;;5058225;28;20039;-87
2022/05/14 03:47:37;;;;;;;11.40;4.72;;;;;;;;;;5058515;28;20082;-89
2022/05/14 03:50:04;;;;;;;15.43;5.45;;;;;;;;;;5059092;28;20098;-90
2022/05/14 03:52:30;;;;;;;18.88;5.78;;;;;;;;;;5058890;28;20048;-91
2022/05/14 03:54:56;;;;;;;20.70;5.15;;;;;;;;;;5059258;28;20084;-89
2022/05/14 03:57:22;;;;;;;14.80;5.85;;;;;;;;;;5058813;28;20040;-89
2022/05/14 03:59:48;;;;;;;16.75;5.47;;;;;;;;;;5057709;28;20488;-93
2022/05/14 04:02:14;;;;;;;13.32;5.05;;;;;;;;;;5057850;28;20081;-90
2022/05/14 04:04:40;;;;;;;12.18;4.95;;;;;;;;;;5058205;28;20505;-90
2022/05/14 04:07:06;;;;;;;9.93;5.03;;;;;;;;;;5058071;28;20085;-91
2022/05/14 04:09:32;;;;;;;23.25;5.43;;;;;;;;;;5058073;28;20040;-90
2022/05/14 04:11:58;;;;;;;18.23;5.53;;;;;;;;;;5074321;28;20570;-87
2022/05/14 04:14:24;;;;;;;14.38;5.20;;;;;;;;;;5057624;28;20040;-89
2022/05/14 04:16:50;;;;;;;14.30;4.88;;;;;;;;;;5058275;28;20102;-87
2022/05/14 04:19:16;;;;;;;14.30;5.82;;;;;;;;;;5057561;28;20135;-95
2022/05/14 04:21:43;;;;;;;16.83;6.22;;;;;;;;;;5058570;28;20044;-91
2022/05/14 04:24:09;;;;;;;12.70;5.13;;;;;;;;;;5057024;28;20063;-86
2022/05/14 04:26:35;;;;;;;15.10;6.20;;;;;;;;;;5057136;28;20044;-89
2022/05/14 04:29:01;;;;;;;16.90;6.40;;;;;;;;;;5057791;28;20531;-87
2022/05/14 04:31:27;;;;;;;12.63;5.25;;;;;;;;;;5058054;28;20037;-88
2022/05/14 04:33:53;;;;;;;15.02;6.32;;;;;;;;;;5057570;28;20041;-90
2022/05/14 04:36:19;;;;;;;15.68;5.78;;;;;;;;;;5057679;28;20115;-92
2022/05/14 04:38:45;;;;;;;23.35;6.85;;;;;;;;;;5057742;28;20480;-89
2022/05/14 04:41:11;;;;;;;15.70;6.13;;;;;;;;;;5056998;28;20094;-87
2022/05/14 04:43:37;;;;;;;19.08;6.45;;;;;;;;;;5073291;28;20032;-90
2022/05/14 04:46:07;;;;;;;18.23;6.20;;;;;;;;;;5056017;28;20080;-88
2022/05/14 04:48:34;;;;;;;22.88;6.15;;;;;;;;;;5037260;28;20480;-87
2022/05/14 04:51:00;;;;;;;16.02;6.13;;;;;;;;;;5057206;28;20115;-89
2022/05/14 04:53:26;;;;;;;18.85;6.45;;;;;;;;;;5057359;28;20090;-90
2022/05/14 04:55:52;;;;;;;14.00;4.82;;;;;;;;;;5057330;28;20040;-89
2022/05/14 04:58:18;;;;;;;17.98;6.25;;;;;;;;;;5056762;28;20210;-86
2022/05/14 05:00:44;;;;;;;14.75;6.22;;;;;;;;;;5057191;28;20140;-92
2022/05/14 05:03:19;;;;;;;18.40;5.57;;;;;;;;;;5057180;28;20094;-87
2022/05/14 05:05:54;;;;;;;16.40;6.32;;;;;;;;;;5056328;28;20028;-93
2022/05/14 05:08:21;;;;;;;16.45;5.85;;;;;;;;;;5056390;28;20076;-94
2022/05/14 05:10:47;;;;;;;14.93;5.90;;;;;;;;;;5058022;28;20044;-94
2022/05/14 05:13:16;;;;;;;24.20;6.35;;;;;;;;;;5057921;28;20447;-90
2022/05/14 05:15:42;;;;;;;19.88;6.40;;;;;;;;;;5057860;28;20028;-89
2022/05/14 05:18:09;;;;;;;18.30;5.50;;;;;;;;;;5054691;28;20503;-89
2022/05/14 05:20:37;;;;;;;17.40;6.32;;;;;;;;;;5072597;28;20538;-91
2022/05/14 05:23:03;;;;;;;21.17;6.35;;;;;;;;;;5055976;28;20492;-89
2022/05/14 05:25:29;;;;;;;18.63;5.55;;;;;;;;;;5069432;28;20147;-88
2022/05/14 05:27:56;;;;;;;14.93;5.70;;;;;;;;;;5056229;28;20032;-93
2022/05/14 05:30:22;;;;;;;14.70;5.70;;;;;;;;;;5055673;28;20040;-87
2022/05/14 05:32:48;;;;;;;14.63;5.40;;;;;;;;;;5055335;28;20040;-92
2022/05/14 05:35:14;;;;;;;15.68;6.82;;;;;;;;;;5056370;28;20123;-94
2022/05/14 05:37:40;;;;;;;20.65;5.85;;;;;;;;;;5056207;28;20064;-90
2022/05/14 05:40:07;;;;;;;22.90;7.30;;;;;;;;;;5055779;28;20036;-89
2022/05/14 05:42:34;;;;;;;19.92;6.30;;;;;;;;;;5055720;28;20438;-94
2022/05/14 05:45:00;;;;;;;16.73;5.15;;;;;;;;;;5055465;28;20483;-89
2022/05/14 05:47:26;;;;;;;14.52;5.53;;;;;;;;;;5056373;28;20118;-87
2022/05/14 05:49:52;;;;;;;16.85;6.20;;;;;;;;;;5056662;28;20511;-92
2022/05/14 05:52:18;;;;;;;19.95;5.25;;;;;;;;;;5056950;28;20048;-88
2022/05/14 05:57:29;;;;;;;22.30;6.25;;;;;;;;;;5072077;28;20040;-90
2022/05/14 05:59:55;;;;;;;14.00;5.07;;;;;;;;;;5056763;28;20033;-93
2022/05/14 06:02:21;;;;;;;16.00;5.40;;;;;;;;;;5055921;28;20043;-89
2022/05/14 06:04:47;;;;;;;16.63;5.45;;;;;;;;;;5072828;28;20040;-93
2022/05/14 06:07:14;;;;;;;10.82;5.03;;;;;;;;;;5056067;28;20036;-91
2022/05/14 06:09:40;;;;;;;16.33;5.43;;;;;;;;;;5055705;28;20097;-89
2022/05/14 06:12:06;;;;;;;19.60;7.03;;;;;;;;;;5072268;28;20033;-92
2022/05/14 06:14:33;;;;;;;17.75;6.68;;;;;;;;;;5054778;28;20396;-92
2022/05/14 06:16:59;;;;;;;17.05;6.38;;;;;;;;;;5054940;28;20046;-88
2022/05/14 06:19:25;;;;;;;20.52;6.63;;;;;;;;;;5055962;28;20040;-93
2022/05/14 06:21:51;;;;;;;18.67;5.90;;;;;;;;;;5056719;28;20029;-87
2022/05/14 06:24:17;;;;;;;16.88;5.85;;;;;;;;;;5055699;28;20147;-89
2022/05/14 06:26:43;;;;;;;17.10;5.38;;;;;;;;;;5056110;28;20495;-90
2022/05/14 06:29:09;;;;;;;17.30;5.28;;;;;;;;;;5055649;28;20128;-92
2022/05/14 06:31:36;;;;;;;14.38;4.63;;;;;;;;;;5055975;28;20040;-92
2022/05/14 06:34:02;;;;;;;18.85;6.07;;;;;;;;;;5056335;28;20055;-89
2022/05/14 06:36:28;;;;;;;15.80;4.97;;;;;;;;;;5056046;28;20044;-90
2022/05/14 06:38:54;;;;;;;16.20;5.32;;;;;;;;;;5059835;28;20048;-88
2022/05/14 06:41:20;;;;;;;16.20;5.55;;;;;;;;;;5059919;28;20072;-89
2022/05/14 06:43:46;;;;;;;15.68;5.10;;;;;;;;;;5076097;28;20040;-86
2022/05/14 06:46:13;;;;;;;13.13;4.97;;;;;;;;;;5075726;28;20052;-85
2022/05/14 06:48:39;;;;;;;18.45;6.50;;;;;;;;;;5058683;28;20464;-92
2022/05/14 06:51:07;;;;;;;16.95;7.70;;;;;;;;;;5074970;28;20036;-86
2022/05/14 06:53:34;;;;;;;17.45;6.80;;;;;;;;;;5057783;28;20082;-86
2022/05/14 06:56:00;;;;;;;17.70;6.43;;;;;;;;;;5074903;28;20051;-85
2022/05/14 06:58:30;;;;;;;13.88;6.32;;;;;;;;;;5057935;28;20040;-93
2022/05/14 07:00:56;;;;;;;15.05;6.10;;;;;;;;;;5058195;28;20083;-86
2022/05/14 07:08:51;;;;;;;11.43;4.70;;;;;;;;;;5074404;28;20048;-82
2022/05/14 07:11:18;;;;;;;12.88;5.20;;;;;;;;;;5057800;28;20094;-86
2022/05/14 07:13:44;;;;;;;16.15;4.97;;;;;;;;;;5057493;28;20400;-83
2022/05/14 07:16:10;;;;;;;11.32;4.68;;;;;;;;;;5057745;28;20544;-87
2022/05/14 07:18:36;;;;;;;12.35;4.40;;;;;;;;;;5057238;28;20036;-88
2022/05/14 07:21:02;;;;;;;13.90;5.10;;;;;;;;;;5058095;28;20048;-87
2022/05/14 07:23:29;;;;;;;11.55;4.43;;;;;;;;;;5057445;28;20351;-83
2022/05/14 07:25:55;;;;;;;12.65;4.35;;;;;;;;;;5057369;28;20131;-80
2022/05/14 07:28:21;;;;;;;15.15;4.68;;;;;;;;;;5057518;28;20571;-82
2022/05/14 07:30:47;;;;;;;13.73;4.65;;;;;;;;;;5057328;28;20062;-82
2022/05/14 07:33:13;;;;;;;13.60;4.53;;;;;;;;;;5057058;28;20048;-88
2022/05/14 07:35:39;;;;;;;13.55;4.50;;;;;;;;;;5057377;28;20098;-83
2022/05/14 07:38:06;;;;;;;11.95;4.00;;;;;;;;;;5074011;28;20480;-87
2022/05/14 07:40:34;;;;;;;15.20;5.13;;;;;;;;;;5074246;28;20504;-84
2022/05/14 07:43:01;;;;;;;13.18;4.15;;;;;;;;;;5058167;28;20055;-86
2022/05/14 07:45:35;;;;;;;12.95;4.45;;;;;;;;;;5056917;28;20044;-84
2022/05/14 07:48:04;;;;;;;14.07;4.05;;;;;;;;;;5056339;28;20447;-89
2022/05/14 07:50:30;;;;;;;18.20;5.15;;;;;;;;;;5057144;28;20098;-79
2022/05/14 07:52:58;;;;;;;11.93;4.50;;;;;;;;;;5073617;28;20083;-84
2022/05/14 07:55:24;;;;;;;14.52;4.18;;;;;;;;;;5057007;28;20063;-87
2022/05/14 07:57:50;;;;;;;12.77;4.80;;;;;;;;;;5058193;28;20056;-83
2022/05/14 08:00:16;;;;;;;11.10;4.63;;;;;;;;;;5057771;28;20051;-90
2022/05/14 08:02:44;;;;;;;13.55;4.22;;;;;;;;;;5057353;28;20036;-89
2022/05/14 08:05:11;;;;;;;11.27;4.18;;;;;;;;;;5056286;28;20037;-85
2022/05/14 08:07:37;;;;;;;15.32;4.95;;;;;;;;;;5056656;28;20067;-83
2022/05/14 08:10:04;;;;;;;16.50;4.50;;;;;;;;;;5073063;28;20036;-84
2022/05/14 08:12:40;;;;;;;13.48;3.97;;;;;;;;;;5056377;28;20036;-84
2022/05/14 08:15:06;;;;;;;13.43;4.38;;;;;;;;;;5055651;28;20431;-83
2022/05/14 08:17:32;;;;;;;15.40;4.45;;;;;;;;;;5055657;28;20082;-84
2022/05/14 08:19:58;;;;;;;14.70;3.97;;;;;;;;;;5072829;28;20036;-85
2022/05/14 08:25:10;;;;;;;10.23;3.90;;;;;;;;;;5070582;28;20044;-79
2022/05/14 08:27:44;;;;;;;10.60;4.28;;;;;;;;;;5071285;28;20072;-83
2022/05/14 08:30:14;;;;;;;14.02;4.80;;;;;;;;;;5052520;28;20094;-89
2022/05/14 08:32:43;;;;;;;10.80;4.13;;;;;;;;;;5052113;28;20093;-87
2022/05/14 08:35:10;;;;;;;13.63;4.03;;;;;;;;;;5054862;28;20045;-79
2022/05/14 08:37:36;;;;;;;11.05;4.30;;;;;;;;;;5038292;28;20783;-87
2022/05/14 08:40:10;;;;;;;13.15;4.07;;;;;;;;;;5047502;28;20032;-88
2022/05/14 08:42:40;;;;;;;13.43;4.25;;;;;;;;;;5069473;28;20040;-86
2022/05/14 08:45:06;;;;;;;13.07;3.95;;;;;;;;;;5051126;28;20119;-87
2022/05/14 08:47:35;;;;;;;11.32;4.32;;;;;;;;;;5052290;28;20043;-85
2022/05/14 08:50:03;;;;;;;12.90;4.55;;;;;;;;;;5069533;28;20067;-81
2022/05/14 08:52:29;;;;;;;13.18;4.28;;;;;;;;;;5052847;28;20051;-81
2022/05/14 08:54:59;;;;;;;14.10;4.70;;;;;;;;;;5051880;28;20043;-84
2022/05/14 08:57:28;;;;;;;12.27;4.60;;;;;;;;;;5052407;28;20044;-84
2022/05/14 08:59:55;;;;;;;13.82;4.32;;;;;;;;;;5053827;28;20101;-82
2022/05/14 09:02:40;;;;;;;14.20;4.40;;;;;;;;;;5056428;28;20082;-83
2022/05/14 09:05:09;;;;;;;18.95;5.00;;;;;;;;;;5072700;28;20044;-82
2022/05/14 09:07:36;;;;;;;17.13;4.90;;;;;;;;;;5068613;28;20076;-79
2022/05/14 09:10:06;;;;;;;12.77;4.78;;;;;;;;;;5053185;28;20483;-82
2022/05/14 09:12:36;;;;;;;11.90;4.25;;;;;;;;;;5055395;28;20105;-85
2022/05/14 09:15:05;;;;;;;14.73;4.93;;;;;;;;;;5057552;28;20154;-85
2022/05/14 09:17:31;;;;;;;12.80;4.65;;;;;;;;;;5072900;28;20464;-82
2022/05/14 09:19:58;;;;;;;16.92;4.70;;;;;;;;;;5056177;28;20032;-89
2022/05/14 09:22:30;;;;;;;14.25;4.30;;;;;;;;;;5056414;28;20037;-89
2022/05/14 09:24:59;;;;;;;12.93;4.68;;;;;;;;;;5055931;28;20028;-80
2022/05/14 09:27:27;;;;;;;12.75;4.10;;;;;;;;;;5056261;28;20075;-81
2022/05/14 09:29:59;;;;;;;11.50;3.90;;;;;;;;;;5072701;28;20036;-80
2022/05/14 09:32:41;;;;;;;13.98;4.80;;;;;;;;;;5056127;28;20043;-87
2022/05/14 09:35:09;;;;;;;14.23;4.32;;;;;;;;;;5053278;28;20040;-82
2022/05/14 09:37:35;;;;;;;14.88;5.22;;;;;;;;;;5056493;28;20199;-84
2022/05/14 09:40:05;;;;;;;13.50;4.25;;;;;;;;;;5056179;28;20119;-83
2022/05/14 09:42:48;;;;;;;14.23;4.60;;;;;;;;;;5055134;28;20403;-77
2022/05/14 09:45:23;;;;;;;14.18;4.57;;;;;;;;;;5054156;28;20068;-82
2022/05/14 09:47:49;;;;;;;17.00;4.45;;;;;;;;;;5071243;28;20058;-85
2022/05/14 09:50:24;;;;;;;13.55;4.68;;;;;;;;;;5055417;28;20127;-79
2022/05/14 09:52:58;;;;;;;13.63;4.63;;;;;;;;;;5071715;28;20048;-82
2022/05/14 09:55:33;;;;;;;11.65;3.88;;;;;;;;;;5054871;28;20577;-81
2022/05/14 09:58:03;;;;;;;14.63;3.97;;;;;;;;;;5054201;28;20074;-88
2022/05/14 10:00:51;;;;;;;9.85;2.95;;;;;;;;;;5054200;28;20570;-80
2022/05/14 10:03:27;;;;;;;12.68;4.45;;;;;;;;;;5053758;28;20049;-80
2022/05/14 10:06:12;;;;;;;12.38;3.72;;;;;;;;;;5070906;28;20122;-84
2022/05/14 10:08:46;;;;;;;9.27;4.03;;;;;;;;;;5054188;28;20033;-83
2022/05/14 10:11:23;;;;;;;13.05;4.35;;;;;;;;;;5055100;28;20075;-83
2022/05/14 10:13:53;;;;;;;13.73;4.30;;;;;;;;;;5055400;28;20048;-84
2022/05/14 10:16:25;;;;;;;12.38;2.50;;;;;;;;;;5055738;28;20040;-91
2022/05/14 10:18:51;;;;;;;13.93;5.38;;;;;;;;;;5055251;28;20480;-83
2022/05/14 10:21:26;;;;;;;12.20;3.50;;;;;;;;;;5055449;28;20043;-83
2022/05/14 10:26:58;;;;;;;12.40;3.45;;;;;;;;;;5071793;28;20044;-87
2022/05/14 10:29:44;;;;;;;14.15;4.28;;;;;;;;;;5055230;28;20040;-84
2022/05/14 10:32:16;;;;;;;17.30;3.40;;;;;;;;;;5054717;28;20075;-82
2022/05/14 10:34:45;;;;;;;12.43;4.28;;;;;;;;;;5070922;28;20079;-86
2022/05/14 10:37:20;;;;;;;9.63;3.45;;;;;;;;;;5053983;28;20036;-80
2022/05/14 10:40:05;;;;;;;13.43;4.03;;;;;;;;;;5053985;28;20048;-87
2022/05/14 10:42:39;;;;;;;15.38;4.25;;;;;;;;;;5053866;28;20037;-80
2022/05/14 10:45:14;;;;;;;12.27;4.18;;;;;;;;;;5053416;28;20481;-84
2022/05/14 10:47:46;;;;;;;18.90;5.30;;;;;;;;;;5053956;28;20041;-86
2022/05/14 10:50:20;;;;;;;11.60;4.35;;;;;;;;;;5071311;28;20476;-88
2022/05/14 10:52:49;;;;;;;16.02;5.07;;;;;;;;;;5055319;28;20080;-85
2022/05/14 10:55:21;;;;;;;12.85;2.90;;;;;;;;;;5055024;28;20059;-82
2022/05/14 10:57:48;;;;;;;10.70;3.50;;;;;;;;;;5054968;28;20054;-89
2022/05/14 11:00:20;;;;;;;11.50;2.85;;;;;;;;;;5054695;28;20044;-89
2022/05/14 11:02:54;;;;;;;12.35;4.35;;;;;;;;;;5054802;28;20045;-84
2022/05/14 11:05:46;;;;;;;13.38;3.15;;;;;;;;;;5055561;28;20094;-82
2022/05/14 11:08:15;;;;;;;11.40;2.90;;;;;;;;;;5056264;28;20139;-88
2022/05/14 11:10:42;;;;;;;14.07;4.88;;;;;;;;;;5053715;28;20036;-82
2022/05/14 11:13:11;;;;;;;12.60;4.72;;;;;;;;;;5053104;28;20040;-86
2022/05/14 11:15:37;;;;;;;12.23;3.28;;;;;;;;;;5054674;28;20086;-83
2022/05/14 11:18:08;;;;;;;8.15;2.60;;;;;;;;;;5055061;28;20126;-81
2022/05/14 11:20:38;;;;;;;13.85;4.30;;;;;;;;;;5053872;28;20051;-84
2022/05/14 11:23:10;;;;;;;13.00;3.08;;;;;;;;;;5055463;28;20036;-87
2022/05/14 11:25:36;;;;;;;11.95;3.13;;;;;;;;;;5073185;28;20076;-83
2022/05/14 11:28:27;;;;;;;12.20;2.70;;;;;;;;;;5058683;28;20037;-87
2022/05/14 11:31:09;;;;;;;10.15;3.10;;;;;;;;;;5075357;28;20045;-84
2022/05/14 11:33:35;;;;;;;12.10;3.25;;;;;;;;;;5058665;28;20048;-84
2022/05/14 11:36:04;;;;;;;11.98;3.58;;;;;;;;;;5057413;28;20048;-82
2022/05/14 11:38:32;;;;;;;16.95;3.63;;;;;;;;;;5058177;28;20045;-82
2022/05/14 11:41:00;;;;;;;14.00;3.47;;;;;;;;;;5057224;28;20511;-83
2022/05/14 11:43:34;;;;;;;9.40;2.58;;;;;;;;;;5056954;28;20055;-83
2022/05/14 11:46:27;;;;;;;12.55;3.22;;;;;;;;;;5056449;28;20059;-85
2022/05/14 11:48:56;;;;;;;15.75;4.03;;;;;;;;;;5041424;28;20094;-82
2022/05/14 11:51:29;;;;;;;11.63;3.47;;;;;;;;;;5056618;28;20037;-81
2022/05/14 11:54:10;;;;;;;15.55;4.13;;;;;;;;;;5058172;28;20044;-81
2022/05/14 11:56:40;;;;;;;13.80;2.85;;;;;;;;;;5057734;28;20040;-84
2022/05/14 11:59:11;;;;;;;10.07;2.90;;;;;;;;;;5057133;28;20090;-84
2022/05/14 12:01:39;;;;;;;9.93;2.95;;;;;;;;;;5056726;28;20283;-81
2022/05/14 12:04:10;;;;;;;15.20;2.97;;;;;;;;;;5056714;28;20156;-91
2022/05/14 12:06:51;;;;;;;10.00;3.40;;;;;;;;;;5056607;28;20044;-83
2022/05/14 12:09:31;;;;;;;10.73;2.50;;;;;;;;;;5056918;28;20040;-84
2022/05/14 12:12:29;;;;;;;13.85;2.80;;;;;;;;;;5056693;28;20036;-87
2022/05/14 12:14:56;;;;;;;11.65;3.25;;;;;;;;;;5052004;28;20072;-82
2022/05/14 12:17:22;;;;;;;12.98;3.42;;;;;;;;;;5057349;28;20107;-85
2022/05/14 12:19:56;;;;;;;10.90;3.45;;;;;;;;;;5057283;28;20041;-85
2022/05/14 12:22:25;;;;;;;13.18;3.20;;;;;;;;;;5057043;28;20431;-82
2022/05/14 12:24:59;;;;;;;17.48;3.70;;;;;;;;;;5056636;28;20066;-84
2022/05/14 12:27:26;;;;;;;9.90;2.53;;;;;;;;;;5073610;28;20048;-87
2022/05/14 12:29:55;;;;;;;16.48;5.13;;;;;;;;;;5056850;28;20032;-83
2022/05/14 12:35:22;;;;;;;9.38;2.92;;;;;;;;;;5070957;28;20438;-83
2022/05/14 12:37:50;;;;;;;10.63;3.15;;;;;;;;;;5071903;28;20054;-82
2022/05/14 12:40:36;;;;;;;7.18;2.97;;;;;;;;;;5053364;28;20710;-88
2022/05/14 12:43:03;;;;;;;10.43;3.25;;;;;;;;;;5055180;28;20068;-80
2022/05/14 12:45:37;;;;;;;17.00;5.10;;;;;;;;;;5054860;28;20060;-79
2022/05/14 12:48:04;;;;;;;16.48;4.68;;;;;;;;;;5054816;28;20070;-82
2022/05/14 12:50:33;;;;;;;8.00;2.72;;;;;;;;;;5071564;28;20064;-86
2022/05/14 12:53:01;;;;;;;14.93;4.68;;;;;;;;;;5055095;28;20492;-82
2022/05/14 12:55:28;;;;;;;9.40;3.28;;;;;;;;;;5072027;28;20036;-86
2022/05/14 12:57:56;;;;;;;13.02;3.03;;;;;;;;;;5072173;28;20056;-80
2022/05/14 13:00:22;;;;;;;13.25;3.53;;;;;;;;;;5056112;28;20041;-86
2022/05/14 13:02:55;;;;;;;15.88;5.07;;;;;;;;;;5056192;28;20051;-83
2022/05/14 13:05:23;;;;;;;17.95;4.90;;;;;;;;;;5072695;28;20043;-86
2022/05/14 13:07:52;;;;;;;11.52;2.75;;;;;;;;;;5056002;28;20076;-84
2022/05/14 13:10:21;;;;;;;13.45;2.95;;;;;;;;;;5055615;28;20072;-84
2022/05/14 13:12:49;;;;;;;13.05;2.70;;;;;;;;;;5056195;28;20058;-84
2022/05/14 13:15:15;;;;;;;10.07;2.42;;;;;;;;;;5072790;28;20048;-80
2022/05/14 13:17:41;;;;;;;11.43;2.70;;;;;;;;;;5073029;28;20042;-83
2022/05/14 13:20:15;;;;;;;12.63;3.30;;;;;;;;;;5056524;28;20045;-81
2022/05/14 13:22:43;;;;;;;14.32;3.40;;;;;;;;;;5056892;28;20037;-87
2022/05/14 13:25:28;;;;;;;117.68;11.27;;;;;;;;;;5056018;28;20072;-82
2022/05/14 13:27:54;;;;;;;54.85;6.68;;;;;;;;;;5072331;28;20037;-81
2022/05/14 13:30:30;;;;;;;52.63;6.68;;;;;;;;;;5072126;28;20392;-79
2022/05/14 13:33:06;;;;;;;12.63;3.88;;;;;;;;;;5055607;28;20036;-84
2022/05/14 13:38:17;;;;;;;56.72;7.53;;;;;;;;;;5072491;28;20044;-82
2022/05/14 13:40:43;;;;;;;12.65;3.72;;;;;;;;;;5055115;28;20040;-86
2022/05/14 13:43:12;;;;;;;45.00;7.57;;;;;;;;;;5054689;28;20036;-84
2022/05/14 13:45:40;;;;;;;26.58;4.88;;;;;;;;;;5053913;28;20064;-87
2022/05/14 13:48:08;;;;;;;10.57;3.78;;;;;;;;;;5054723;28;20032;-83
2022/05/14 13:50:36;;;;;;;25.55;6.88;;;;;;;;;;5054390;28;20123;-88
2022/05/14 13:53:02;;;;;;;29.25;5.43;;;;;;;;;;5054783;28;20091;-85
2022/05/14 13:55:28;;;;;;;13.63;3.55;;;;;;;;;;5055307;28;20511;-83
2022/05/14 13:57:56;;;;;;;16.27;5.03;;;;;;;;;;5071301;28;20094;-79
2022/05/14 14:00:25;;;;;;;19.90;5.38;;;;;;;;;;5054105;28;20044;-85
2022/05/14 14:02:59;;;;;;;16.50;4.90;;;;;;;;;;5070832;28;20044;-80
2022/05/14 14:05:25;;;;;;;12.73;3.13;;;;;;;;;;5054468;28;20040;-81
2022/05/14 14:07:51;;;;;;;17.08;3.45;;;;;;;;;;5054050;28;20396;-80
2022/05/14 14:10:18;;;;;;;15.68;3.47;;;;;;;;;;5054106;28;20033;-83
2022/05/14 14:12:47;;;;;;;19.88;5.70;;;;;;;;;;5054449;28;20093;-87
2022/05/14 14:15:18;;;;;;;13.77;3.47;;;;;;;;;;5053800;28;20166;-82
2022/05/14 14:17:45;;;;;;;22.60;5.43;;;;;;;;;;5071018;28;20048;-82
2022/05/14 14:20:12;;;;;;;12.10;3.28;;;;;;;;;;5071234;28;20028;-81
2022/05/14 14:22:38;;;;;;;15.27;5.35;;;;;;;;;;5054712;28;20041;-85
2022/05/14 14:25:04;;;;;;;12.57;3.35;;;;;;;;;;5054980;28;20484;-81
2022/05/14 14:27:30;;;;;;;11.43;3.15;;;;;;;;;;5070622;28;20456;-82
2022/05/14 14:30:00;;;;;;;15.93;4.95;;;;;;;;;;5070641;28;20036;-81
2022/05/14 14:32:26;;;;;;;16.75;5.32;;;;;;;;;;5054182;28;20036;-87
2022/05/14 14:34:52;;;;;;;15.98;5.18;;;;;;;;;;5070752;28;20041;-91
2022/05/14 14:37:18;;;;;;;12.27;3.60;;;;;;;;;;5054379;28;20127;-84
2022/05/14 14:39:44;;;;;;;15.73;4.78;;;;;;;;;;5071309;28;20036;-85
2022/05/14 14:42:12;;;;;;;17.27;3.63;;;;;;;;;;5053273;28;20044;-81
2022/05/14 14:44:38;;;;;;;13.45;3.45;;;;;;;;;;5053771;28;20435;-88
2022/05/14 14:47:04;;;;;;;12.38;2.90;;;;;;;;;;5053685;28;20136;-80
2022/05/14 14:49:32;;;;;;;16.63;3.03;;;;;;;;;;5055423;28;20041;-81
2022/05/14 14:51:58;;;;;;;10.93;3.38;;;;;;;;;;5055164;28;20040;-83
2022/05/14 14:54:24;;;;;;;15.80;3.83;;;;;;;;;;5071601;28;20040;-80
2022/05/14 14:56:50;;;;;;;18.05;2.90;;;;;;;;;;5053709;28;20135;-80
2022/05/14 14:59:16;;;;;;;18.70;3.03;;;;;;;;;;5058881;28;20097;-84
2022/05/14 15:01:47;;;;;;;12.18;3.35;;;;;;;;;;5033447;28;20057;-82
2022/05/14 15:06:50;;;;;;;16.65;3.38;;;;;;;;;;5077514;22;20053;-83
2022/05/14 15:09:17;;;;;;;15.90;3.53;;;;;;;;;;5056942;28;20041;-84